createdAt,value
2023-04-04T00:00:57.592Z,31.48
2023-04-04T00:01:56.576Z,31.68
2023-04-04T00:02:56.695Z,32.83
2023-04-04T00:03:57.664Z,32.32
2023-04-04T00:04:57.585Z,30.50
2023-04-04T00:05:57.651Z,29.12
2023-04-04T00:06:57.595Z,30.99
2023-04-04T00:07:57.554Z,33.77
2023-04-04T00:08:57.590Z,30.69
2023-04-04T00:09:57.533Z,29.39
2023-04-04T00:10:57.553Z,29.47
2023-04-04T00:11:57.528Z,30.96
2023-04-04T00:12:57.561Z,30.69
2023-04-04T00:13:57.503Z,28.76
2023-04-04T00:14:57.672Z,29.53
2023-04-04T00:15:57.547Z,28.84
2023-04-04T00:16:57.496Z,28.17
2023-04-04T00:17:57.499Z,29.29
2023-04-04T00:18:56.481Z,28.66
2023-04-04T00:19:57.500Z,25.34
2023-04-04T00:20:57.458Z,28.77
2023-04-04T00:21:57.448Z,28.97
2023-04-04T00:22:57.450Z,28.31
2023-04-04T00:23:57.445Z,29.04
2023-04-04T00:24:57.438Z,28.45
2023-04-04T00:25:57.425Z,28.83
2023-04-04T00:26:57.398Z,30.23
2023-04-04T00:27:57.430Z,31.10
2023-04-04T00:28:57.398Z,30.64
2023-04-04T00:29:57.404Z,29.32
2023-04-04T00:30:57.406Z,28.06
2023-04-04T00:31:57.654Z,27.89
2023-04-04T00:32:56.507Z,28.25
2023-04-04T00:33:57.350Z,26.62
2023-04-04T00:34:57.494Z,29.55
2023-04-04T00:35:57.405Z,32.34
2023-04-04T00:36:57.343Z,29.93
2023-04-04T00:37:57.358Z,32.07
2023-04-04T00:38:56.449Z,29.87
2023-04-04T00:39:57.351Z,26.47
2023-04-04T00:40:56.319Z,29.23
2023-04-04T00:41:57.381Z,27.59
2023-04-04T00:42:57.301Z,27.42
2023-04-04T00:43:57.294Z,28.59
2023-04-04T00:44:57.286Z,29.70
2023-04-04T00:45:57.328Z,27.18
2023-04-04T00:46:57.278Z,26.61
2023-04-04T00:47:57.305Z,27.61
2023-04-04T00:48:57.254Z,27.36
2023-04-04T00:49:57.290Z,27.18
2023-04-04T00:50:56.250Z,27.91
2023-04-04T00:51:57.242Z,29.98
2023-04-04T00:52:57.291Z,31.05
2023-04-04T00:53:57.322Z,34.43
2023-04-04T00:54:57.248Z,31.24
2023-04-04T00:55:57.223Z,31.44
2023-04-04T00:56:57.219Z,28.19
2023-04-04T00:57:57.196Z,27.58
2023-04-04T00:58:57.223Z,31.17
2023-04-04T00:59:57.220Z,31.33
2023-04-04T01:00:57.246Z,32.88
2023-04-04T01:01:56.227Z,29.39
2023-04-04T01:02:57.438Z,35.40
2023-04-04T01:03:57.243Z,37.32
2023-04-04T01:04:57.234Z,36.98
2023-04-04T01:05:57.252Z,40.41
2023-04-04T01:06:57.274Z,38.54
2023-04-04T01:07:57.293Z,35.73
2023-04-04T01:08:57.307Z,33.00
2023-04-04T01:09:57.294Z,31.76
2023-04-04T01:10:57.316Z,31.05
2023-04-04T01:11:57.340Z,29.26
2023-04-04T01:12:57.323Z,31.95
2023-04-04T01:13:57.353Z,33.42
2023-04-04T01:14:57.839Z,33.29
2023-04-04T01:15:57.365Z,36.66
2023-04-04T01:16:56.435Z,36.64
2023-04-04T01:17:57.429Z,37.91
2023-04-04T01:18:56.418Z,38.71
2023-04-04T01:19:57.467Z,38.08
2023-04-04T01:20:57.470Z,38.24
2023-04-04T01:21:56.447Z,35.95
2023-04-04T01:22:57.450Z,33.93
2023-04-04T01:23:57.465Z,34.68
2023-04-04T01:24:56.496Z,31.07
2023-04-04T01:25:57.527Z,34.24
2023-04-04T01:26:57.583Z,31.59
2023-04-04T01:27:57.498Z,29.97
2023-04-04T01:28:56.588Z,33.43
2023-04-04T01:29:57.595Z,36.15
2023-04-04T01:30:57.605Z,32.48
2023-04-04T01:31:56.576Z,34.61
2023-04-04T01:32:57.670Z,32.82
2023-04-04T01:33:56.602Z,33.08
2023-04-04T01:34:56.575Z,30.83
2023-04-04T01:35:57.682Z,27.42
2023-04-04T01:36:57.623Z,28.69
2023-04-04T01:37:56.617Z,31.04
2023-04-04T01:38:56.631Z,35.34
2023-04-04T01:39:56.693Z,34.26
2023-04-04T01:40:56.679Z,33.79
2023-04-04T01:41:57.703Z,34.49
2023-04-04T01:42:57.828Z,34.96
2023-04-04T01:43:57.748Z,35.02
2023-04-04T01:44:56.744Z,34.57
2023-04-04T01:45:57.792Z,30.51
2023-04-04T01:46:57.771Z,32.86
2023-04-04T01:47:57.791Z,30.47
2023-04-04T01:48:57.850Z,31.43
2023-04-04T01:49:57.811Z,28.55
2023-04-04T01:50:57.829Z,29.38
2023-04-04T01:51:57.836Z,28.92
2023-04-04T01:52:57.915Z,28.73
2023-04-04T01:53:56.871Z,28.67
2023-04-04T01:54:56.898Z,27.42
2023-04-04T01:55:57.929Z,30.77
2023-04-04T01:56:57.916Z,31.74
2023-04-04T01:57:57.958Z,31.84
2023-04-04T01:58:56.972Z,30.73
2023-04-04T01:59:57.964Z,33.12
2023-04-04T02:00:57.985Z,32.16
2023-04-04T02:01:57.061Z,34.61
2023-04-04T02:02:58.082Z,32.86
2023-04-04T02:03:57.132Z,33.43
2023-04-04T02:04:57.107Z,34.97
2023-04-04T02:05:57.130Z,37.24
2023-04-04T02:06:58.225Z,34.51
2023-04-04T02:07:58.228Z,34.85
2023-04-04T02:08:58.233Z,34.16
2023-04-04T02:09:58.413Z,36.25
2023-04-04T02:10:57.310Z,40.92
2023-04-04T02:11:58.384Z,33.33
2023-04-04T02:12:58.365Z,33.07
2023-04-04T02:13:58.414Z,34.73
2023-04-04T02:14:58.447Z,36.11
2023-04-04T02:15:58.487Z,35.06
2023-04-04T02:16:58.023Z,36.22
2023-04-04T02:18:00.493Z,33.03
2023-04-04T02:18:58.516Z,33.12
2023-04-04T02:19:58.474Z,33.30
2023-04-04T02:20:58.475Z,32.13
2023-04-04T02:21:58.639Z,34.60
2023-04-04T02:22:57.465Z,37.36
2023-04-04T02:23:58.487Z,38.66
2023-04-04T02:24:58.445Z,39.19
2023-04-04T02:25:58.426Z,43.29
2023-04-04T02:26:57.438Z,40.77
2023-04-04T02:27:58.426Z,40.47
2023-04-04T02:28:58.412Z,39.54
2023-04-04T02:29:58.415Z,36.33
2023-04-04T02:30:58.453Z,35.16
2023-04-04T02:31:57.397Z,38.16
2023-04-04T02:32:58.399Z,39.71
2023-04-04T02:33:58.392Z,35.74
2023-04-04T02:34:58.380Z,35.18
2023-04-04T02:35:58.433Z,35.66
2023-04-04T02:36:58.393Z,36.83
2023-04-04T02:37:58.362Z,33.22
2023-04-04T02:38:57.352Z,31.75
2023-04-04T02:39:58.343Z,33.79
2023-04-04T02:40:58.345Z,36.70
2023-04-04T02:41:58.336Z,37.57
2023-04-04T02:42:58.343Z,34.88
2023-04-04T02:43:58.322Z,32.96
2023-04-04T02:44:57.312Z,33.43
2023-04-04T02:45:57.776Z,33.38
2023-04-04T02:46:57.377Z,33.60
2023-04-04T02:47:58.361Z,31.19
2023-04-04T02:48:58.295Z,29.74
2023-04-04T02:49:57.279Z,32.96
2023-04-04T02:50:58.295Z,29.67
2023-04-04T02:51:58.266Z,31.59
2023-04-04T02:52:58.411Z,30.79
2023-04-04T02:53:58.336Z,29.27
2023-04-04T02:54:57.407Z,29.70
2023-04-04T02:55:58.399Z,27.82
2023-04-04T02:56:57.444Z,27.94
2023-04-04T02:57:58.474Z,29.75
2023-04-04T02:58:58.506Z,27.29
2023-04-04T02:59:58.510Z,31.78
2023-04-04T03:00:58.554Z,33.66
2023-04-04T03:01:57.669Z,33.68
2023-04-04T03:02:58.847Z,33.61
2023-04-04T03:03:58.737Z,32.69
2023-04-04T03:04:58.702Z,34.11
2023-04-04T03:05:58.249Z,31.74
2023-04-04T03:06:58.772Z,30.84
2023-04-04T03:07:58.800Z,29.46
2023-04-04T03:08:58.803Z,31.31
2023-04-04T03:09:58.842Z,30.77
2023-04-04T03:10:58.922Z,31.67
2023-04-04T03:11:58.908Z,32.14
2023-04-04T03:12:58.959Z,30.74
2023-04-04T03:13:58.934Z,30.20
2023-04-04T03:14:59.001Z,30.65
2023-04-04T03:15:57.981Z,31.15
2023-04-04T03:16:59.045Z,33.21
2023-04-04T03:17:59.767Z,29.71
2023-04-04T03:18:59.072Z,31.78
2023-04-04T03:19:58.066Z,30.95
2023-04-04T03:20:58.149Z,36.62
2023-04-04T03:21:59.143Z,39.08
2023-04-04T03:22:59.137Z,40.26
2023-04-04T03:23:59.210Z,37.51
2023-04-04T03:24:59.224Z,38.97
2023-04-04T03:25:59.251Z,38.20
2023-04-04T03:26:59.308Z,40.99
2023-04-04T03:27:59.324Z,39.28
2023-04-04T03:28:59.374Z,36.65
2023-04-04T03:29:59.373Z,34.97
2023-04-04T03:30:59.404Z,34.69
2023-04-04T03:31:59.499Z,34.25
2023-04-04T03:32:59.554Z,37.55
2023-04-04T03:33:59.511Z,37.20
2023-04-04T03:34:59.553Z,36.15
2023-04-04T03:35:59.628Z,38.62
2023-04-04T03:36:59.628Z,36.44
2023-04-04T03:37:59.641Z,37.07
2023-04-04T03:38:59.669Z,41.41
2023-04-04T03:39:59.702Z,35.77
2023-04-04T03:40:59.716Z,32.71
2023-04-04T03:41:59.799Z,36.32
2023-04-04T03:42:59.791Z,37.46
2023-04-04T03:43:59.824Z,34.64
2023-04-04T03:44:59.837Z,35.15
2023-04-04T03:45:59.942Z,34.43
2023-04-04T03:46:59.894Z,33.12
2023-04-04T03:47:59.995Z,29.75
2023-04-04T03:48:58.934Z,31.96
2023-04-04T03:49:58.985Z,29.99
2023-04-04T03:50:59.028Z,33.54
2023-04-04T03:52:00.091Z,37.50
2023-04-04T03:52:59.066Z,37.95
2023-04-04T03:54:00.158Z,37.63
2023-04-04T03:55:00.145Z,36.11
2023-04-04T03:55:59.176Z,34.39
2023-04-04T03:57:00.245Z,35.04
2023-04-04T03:58:00.248Z,36.11
2023-04-04T03:59:00.336Z,32.84
2023-04-04T04:00:00.376Z,34.56
2023-04-04T04:01:00.369Z,33.86
2023-04-04T04:02:00.454Z,30.29
2023-04-04T04:03:00.552Z,28.44
2023-04-04T04:03:59.514Z,28.17
2023-04-04T04:05:00.578Z,31.19
2023-04-04T04:05:59.564Z,32.06
2023-04-04T04:06:59.644Z,31.50
2023-04-04T04:08:00.673Z,31.80
2023-04-04T04:08:59.680Z,31.70
2023-04-04T04:09:59.753Z,34.70
2023-04-04T04:10:59.781Z,30.40
2023-04-04T04:12:00.816Z,29.81
2023-04-04T04:12:59.867Z,29.99
2023-04-04T04:13:59.898Z,30.02
2023-04-04T04:15:00.934Z,30.45
2023-04-04T04:16:01.028Z,30.77
2023-04-04T04:17:01.023Z,27.99
2023-04-04T04:18:01.178Z,26.81
2023-04-04T04:19:00.173Z,29.49
2023-04-04T04:20:01.133Z,31.96
2023-04-04T04:21:01.164Z,34.09
2023-04-04T04:22:01.260Z,31.91
2023-04-04T04:23:00.406Z,33.39
2023-04-04T04:24:00.339Z,35.79
2023-04-04T04:25:01.326Z,33.61
2023-04-04T04:26:00.368Z,31.60
2023-04-04T04:27:01.407Z,33.40
2023-04-04T04:28:01.454Z,33.14
2023-04-04T04:29:01.567Z,33.60
2023-04-04T04:30:01.545Z,33.28
2023-04-04T04:31:00.559Z,36.91
2023-04-04T04:32:01.623Z,38.10
2023-04-04T04:33:01.740Z,36.81
2023-04-04T04:34:00.861Z,35.78
2023-04-04T04:35:01.747Z,32.45
2023-04-04T04:36:02.095Z,32.58
2023-04-04T04:37:00.885Z,33.00
2023-04-04T04:38:01.949Z,34.93
2023-04-04T04:39:01.962Z,36.28
2023-04-04T04:40:02.122Z,36.15
2023-04-04T04:41:02.030Z,36.47
2023-04-04T04:42:02.022Z,35.86
2023-04-04T04:43:01.107Z,36.76
2023-04-04T04:44:01.110Z,33.38
2023-04-04T04:45:02.126Z,32.04
2023-04-04T04:46:02.166Z,35.51
2023-04-04T04:47:02.277Z,35.25
2023-04-04T04:48:02.262Z,36.56
2023-04-04T04:49:02.313Z,39.49
2023-04-04T04:50:02.332Z,38.16
2023-04-04T04:51:02.361Z,35.25
2023-04-04T04:52:02.419Z,34.25
2023-04-04T04:53:02.460Z,34.03
2023-04-04T04:54:02.519Z,37.22
2023-04-04T04:55:02.566Z,36.22
2023-04-04T04:56:02.562Z,37.67
2023-04-04T04:57:02.606Z,35.19
2023-04-04T04:58:02.664Z,33.03
2023-04-04T04:59:01.749Z,30.53
2023-04-04T05:00:02.739Z,34.25
2023-04-04T05:01:02.781Z,32.08
2023-04-04T05:02:02.858Z,30.55
2023-04-04T05:03:01.893Z,31.16
2023-04-04T05:04:02.905Z,31.67
2023-04-04T05:05:02.921Z,32.07
2023-04-04T05:06:02.976Z,32.24
2023-04-04T05:07:03.017Z,32.89
2023-04-04T05:08:02.052Z,34.71
2023-04-04T05:09:03.129Z,33.98
2023-04-04T05:10:02.189Z,37.49
2023-04-04T05:11:05.212Z,32.25
2023-04-04T05:12:02.153Z,36.14
2023-04-04T05:13:02.140Z,37.44
2023-04-04T05:14:02.181Z,39.55
2023-04-04T05:15:03.142Z,33.07
2023-04-04T05:16:02.172Z,35.27
2023-04-04T05:17:03.142Z,35.77
2023-04-04T05:18:02.206Z,32.13
2023-04-04T05:19:02.137Z,34.03
2023-04-04T05:20:03.127Z,32.53
2023-04-04T05:21:03.097Z,33.45
2023-04-04T05:22:03.102Z,32.64
2023-04-04T05:23:03.082Z,32.95
2023-04-04T05:24:02.068Z,29.80
2023-04-04T05:25:03.087Z,29.12
2023-04-04T05:26:03.104Z,30.78
2023-04-04T05:27:03.097Z,30.32
2023-04-04T05:28:03.049Z,32.31
2023-04-04T05:29:03.032Z,34.27
2023-04-04T05:30:03.038Z,34.89
2023-04-04T05:31:03.050Z,36.27
2023-04-04T05:32:03.103Z,34.42
2023-04-04T05:33:03.070Z,35.43
2023-04-04T05:34:02.033Z,33.52
2023-04-04T05:35:03.058Z,34.72
2023-04-04T05:36:02.089Z,32.79
2023-04-04T05:37:02.984Z,33.09
2023-04-04T05:38:02.988Z,34.21
2023-04-04T05:39:02.977Z,33.04
2023-04-04T05:40:03.119Z,30.41
2023-04-04T05:41:02.977Z,36.02
2023-04-04T05:42:02.961Z,39.23
2023-04-04T05:43:02.961Z,37.83
2023-04-04T05:44:02.965Z,38.71
2023-04-04T05:45:02.931Z,39.84
2023-04-04T05:46:02.978Z,38.36
2023-04-04T05:47:02.927Z,34.88
2023-04-04T05:48:01.950Z,38.96
2023-04-04T05:49:01.927Z,37.54
2023-04-04T05:50:03.095Z,34.42
2023-04-04T05:51:02.899Z,36.46
2023-04-04T05:52:01.890Z,36.56
2023-04-04T05:53:02.938Z,39.43
2023-04-04T05:54:01.975Z,39.84
2023-04-04T05:55:02.986Z,32.16
2023-04-04T05:56:03.029Z,33.87
2023-04-04T05:57:02.061Z,36.82
2023-04-04T05:58:03.247Z,35.29
2023-04-04T05:59:03.175Z,35.23
2023-04-04T06:00:03.229Z,29.38
2023-04-04T06:01:03.179Z,32.86
2023-04-04T06:02:03.218Z,28.23
2023-04-04T06:03:03.413Z,28.37
2023-04-04T06:04:03.371Z,31.30
2023-04-04T06:05:03.340Z,33.28
2023-04-04T06:06:03.410Z,27.73
2023-04-04T06:07:02.452Z,27.77
2023-04-04T06:08:03.419Z,28.22
2023-04-04T06:09:03.466Z,30.99
2023-04-04T06:10:03.545Z,31.21
2023-04-04T06:11:03.547Z,32.18
2023-04-04T06:12:03.556Z,30.75
2023-04-04T06:13:03.614Z,31.49
2023-04-04T06:14:03.771Z,31.44
2023-04-04T06:15:03.733Z,28.83
2023-04-04T06:16:03.827Z,25.25
2023-04-04T06:17:02.733Z,27.74
2023-04-04T06:18:03.873Z,25.66
2023-04-04T06:19:02.833Z,31.59
2023-04-04T06:20:03.822Z,29.36
2023-04-04T06:21:03.885Z,30.09
2023-04-04T06:22:03.914Z,27.09
2023-04-04T06:23:03.909Z,30.20
2023-04-04T06:24:03.944Z,27.98
2023-04-04T06:25:03.992Z,31.80
2023-04-04T06:26:03.017Z,30.95
2023-04-04T06:27:03.049Z,29.74
2023-04-04T06:28:04.086Z,34.27
2023-04-04T06:29:04.123Z,30.76
2023-04-04T06:30:03.182Z,31.43
2023-04-04T06:31:03.227Z,33.46
2023-04-04T06:32:03.211Z,29.96
2023-04-04T06:33:04.335Z,30.99
2023-04-04T06:34:04.303Z,31.63
2023-04-04T06:35:04.310Z,30.45
2023-04-04T06:36:04.363Z,33.39
2023-04-04T06:37:04.749Z,32.97
2023-04-04T06:38:04.434Z,35.42
2023-04-04T06:39:04.474Z,35.47
2023-04-04T06:40:04.527Z,34.79
2023-04-04T06:41:04.598Z,37.45
2023-04-04T06:42:04.600Z,29.26
2023-04-04T06:43:04.669Z,29.77
2023-04-04T06:44:03.656Z,29.25
2023-04-04T06:45:04.760Z,32.49
2023-04-04T06:46:04.788Z,29.99
2023-04-04T06:47:04.854Z,31.45
2023-04-04T06:48:04.868Z,26.85
2023-04-04T06:49:04.895Z,26.19
2023-04-04T06:50:04.910Z,26.48
2023-04-04T06:51:04.951Z,26.87
2023-04-04T06:52:04.994Z,32.19
2023-04-04T06:53:05.022Z,31.38
2023-04-04T06:54:05.090Z,30.03
2023-04-04T06:55:05.111Z,28.49
2023-04-04T06:56:05.154Z,25.78
2023-04-04T06:57:05.176Z,28.58
2023-04-04T06:58:05.247Z,29.02
2023-04-04T06:59:04.288Z,29.58
2023-04-04T07:00:05.285Z,30.11
2023-04-04T07:01:05.400Z,31.94
2023-04-04T07:02:05.437Z,33.46
2023-04-04T07:03:05.473Z,32.15
2023-04-04T07:04:05.456Z,35.81
2023-04-04T07:05:04.490Z,34.15
2023-04-04T07:06:05.541Z,33.36
2023-04-04T07:07:05.535Z,34.47
2023-04-04T07:08:05.556Z,31.16
2023-04-04T07:09:07.231Z,31.05
2023-04-04T07:10:05.621Z,31.26
2023-04-04T07:11:05.576Z,31.95
2023-04-04T07:12:04.558Z,32.75
2023-04-04T07:13:04.551Z,34.11
2023-04-04T07:14:05.550Z,31.67
2023-04-04T07:15:05.566Z,35.22
2023-04-04T07:16:05.605Z,38.88
2023-04-04T07:17:13.692Z,39.36
2023-04-04T07:18:05.582Z,39.72
2023-04-04T07:19:05.510Z,40.63
2023-04-04T07:20:05.512Z,41.32
2023-04-04T07:21:04.507Z,43.81
2023-04-04T07:22:05.538Z,52.04
2023-04-04T07:23:05.499Z,58.49
2023-04-04T07:24:05.483Z,60.99
2023-04-04T07:25:04.529Z,61.65
2023-04-04T07:26:05.559Z,60.03
2023-04-04T07:27:04.486Z,66.27
2023-04-04T07:28:12.408Z,64.96
2023-04-04T07:29:05.474Z,65.28
2023-04-04T07:30:05.460Z,66.53
2023-04-04T07:31:05.450Z,67.94
2023-04-04T07:32:05.529Z,71.55
2023-04-04T07:33:05.534Z,77.28
2023-04-04T07:34:05.572Z,75.48
2023-04-04T07:35:05.445Z,76.75
2023-04-04T07:36:05.439Z,79.92
2023-04-04T07:37:04.409Z,79.24
2023-04-04T07:38:04.387Z,83.55
2023-04-04T07:39:05.395Z,84.43
2023-04-04T07:40:05.501Z,83.38
2023-04-04T07:41:05.363Z,84.13
2023-04-04T07:42:05.367Z,81.69
2023-04-04T07:43:05.359Z,87.87
2023-04-04T07:44:05.340Z,90.17
2023-04-04T07:45:05.470Z,90.78
2023-04-04T07:46:04.369Z,89.43
2023-04-04T07:47:10.060Z,91.56
2023-04-04T07:48:05.536Z,91.87
2023-04-04T07:49:05.306Z,92.02
2023-04-04T07:50:04.332Z,91.88
2023-04-04T07:51:04.298Z,96.17
2023-04-04T07:52:05.302Z,97.01
2023-04-04T07:53:05.296Z,100.01
2023-04-04T07:54:04.280Z,98.81
2023-04-04T07:55:05.283Z,99.92
2023-04-04T07:56:04.270Z,98.44
2023-04-04T07:57:05.258Z,97.73
2023-04-04T07:58:05.266Z,94.27
2023-04-04T07:59:05.278Z,93.56
2023-04-04T08:00:05.238Z,87.97
2023-04-04T08:01:05.249Z,87.17
2023-04-04T08:02:05.230Z,90.81
2023-04-04T08:03:05.369Z,93.17
2023-04-04T08:04:05.268Z,93.92
2023-04-04T08:05:05.210Z,92.57
2023-04-04T08:06:05.235Z,86.99
2023-04-04T08:07:05.187Z,88.48
2023-04-04T08:08:05.189Z,90.09
2023-04-04T08:09:05.197Z,92.62
2023-04-04T08:10:05.179Z,91.26
2023-04-04T08:11:05.171Z,87.77
2023-04-04T08:12:05.152Z,86.14
2023-04-04T08:13:04.157Z,88.73
2023-04-04T08:14:04.149Z,84.91
2023-04-04T08:15:05.174Z,83.12
2023-04-04T08:16:04.168Z,84.26
2023-04-04T08:17:04.136Z,90.13
2023-04-04T08:18:05.186Z,91.02
2023-04-04T08:19:05.118Z,88.73
2023-04-04T08:20:04.106Z,87.71
2023-04-04T08:21:04.102Z,88.07
2023-04-04T08:22:04.140Z,84.00
2023-04-04T08:23:04.101Z,86.45
2023-04-04T08:24:04.084Z,87.51
2023-04-04T08:25:05.062Z,87.94
2023-04-04T08:26:05.066Z,91.74
2023-04-04T08:27:05.819Z,89.39
2023-04-04T08:28:04.082Z,90.90
2023-04-04T08:29:05.036Z,91.07
2023-04-04T08:30:05.030Z,87.86
2023-04-04T08:31:05.075Z,83.99
2023-04-04T08:32:05.015Z,79.55
2023-04-04T08:33:06.381Z,78.31
2023-04-04T08:34:04.047Z,75.80
2023-04-04T08:35:05.072Z,75.73
2023-04-04T08:36:05.123Z,70.77
2023-04-04T08:37:05.064Z,76.20
2023-04-04T08:38:05.074Z,74.50
2023-04-04T08:39:05.062Z,74.13
2023-04-04T08:40:05.042Z,77.00
2023-04-04T08:41:05.054Z,74.33
2023-04-04T08:42:04.049Z,70.97
2023-04-04T08:43:05.036Z,68.98
2023-04-04T08:44:04.023Z,67.21
2023-04-04T08:45:05.035Z,65.00
2023-04-04T08:46:05.175Z,64.06
2023-04-04T08:47:05.178Z,62.48
2023-04-04T08:48:05.161Z,59.34
2023-04-04T08:49:05.047Z,59.04
2023-04-04T08:50:05.036Z,58.01
2023-04-04T08:51:04.054Z,56.47
2023-04-04T08:52:04.014Z,55.36
2023-04-04T08:53:05.000Z,51.58
2023-04-04T08:54:05.046Z,46.71
2023-04-04T08:55:04.996Z,48.72
2023-04-04T08:56:03.994Z,49.47
2023-04-04T08:57:03.981Z,45.87
2023-04-04T08:58:04.999Z,45.67
2023-04-04T08:59:05.136Z,46.44
2023-04-04T09:00:04.161Z,47.97
2023-04-04T09:01:05.001Z,47.35
2023-04-04T09:02:04.000Z,45.28
2023-04-04T09:03:05.047Z,45.73
2023-04-04T09:04:04.969Z,47.42
2023-04-04T09:05:06.762Z,44.85
2023-04-04T09:06:04.979Z,45.70
2023-04-04T09:07:04.958Z,43.83
2023-04-04T09:08:04.965Z,44.13
2023-04-04T09:09:05.013Z,43.14
2023-04-04T09:10:04.959Z,41.88
2023-04-04T09:11:04.935Z,41.33
2023-04-04T09:12:04.923Z,40.66
2023-04-04T09:13:15.027Z,41.85
2023-04-04T09:14:04.922Z,42.17
2023-04-04T09:15:04.901Z,42.61
2023-04-04T09:16:04.924Z,42.07
2023-04-04T09:17:03.890Z,41.62
2023-04-04T09:18:04.977Z,39.76
2023-04-04T09:19:03.971Z,39.02
2023-04-04T09:20:04.864Z,37.33
2023-04-04T09:21:04.876Z,33.80
2023-04-04T09:22:04.859Z,34.51
2023-04-04T09:23:04.850Z,35.43
2023-04-04T09:24:04.860Z,33.18
2023-04-04T09:25:04.867Z,33.43
2023-04-04T09:26:04.978Z,32.33
2023-04-04T09:27:04.826Z,33.10
2023-04-04T09:28:04.814Z,31.65
2023-04-04T09:29:04.811Z,31.49
2023-04-04T09:30:05.861Z,29.53
2023-04-04T09:31:04.908Z,30.16
2023-04-04T09:32:04.813Z,30.94
2023-04-04T09:33:04.814Z,27.67
2023-04-04T09:34:03.779Z,26.48
2023-04-04T09:35:04.772Z,27.77
2023-04-04T09:36:04.789Z,26.36
2023-04-04T09:37:04.776Z,26.82
2023-04-04T09:38:04.763Z,25.90
2023-04-04T09:39:04.754Z,28.81
2023-04-04T09:40:04.862Z,25.08
2023-04-04T09:41:04.809Z,28.03
2023-04-04T09:42:04.851Z,25.81
2023-04-04T09:43:04.872Z,25.95
2023-04-04T09:44:04.915Z,27.98
2023-04-04T09:45:04.935Z,27.42
2023-04-04T09:46:05.074Z,25.32
2023-04-04T09:47:04.028Z,26.12
2023-04-04T09:48:04.086Z,28.16
2023-04-04T09:49:05.120Z,25.71
2023-04-04T09:50:04.167Z,27.56
2023-04-04T09:51:04.210Z,27.28
2023-04-04T09:52:05.244Z,29.18
2023-04-04T09:53:05.294Z,29.25
2023-04-04T09:54:05.621Z,28.37
2023-04-04T09:55:04.401Z,28.53
2023-04-04T09:56:05.530Z,27.34
2023-04-04T09:57:05.504Z,26.90
2023-04-04T09:58:05.598Z,28.11
2023-04-04T09:59:05.672Z,27.74
2023-04-04T10:00:05.706Z,26.42
2023-04-04T10:01:05.787Z,27.01
2023-04-04T10:02:05.797Z,25.00
2023-04-04T10:03:05.914Z,27.72
2023-04-04T10:04:05.946Z,27.14
2023-04-04T10:05:06.794Z,26.79
2023-04-04T10:06:07.228Z,30.15
2023-04-04T10:07:06.314Z,30.04
2023-04-04T10:08:06.344Z,26.29
2023-04-04T10:09:06.403Z,26.56
2023-04-04T10:10:06.497Z,27.06
2023-04-04T10:11:11.898Z,27.47
2023-04-04T10:12:06.539Z,27.82
2023-04-04T10:13:06.512Z,28.56
2023-04-04T10:14:06.544Z,29.27
2023-04-04T10:15:06.524Z,30.26
2023-04-04T10:16:06.501Z,28.91
2023-04-04T10:17:05.513Z,30.69
2023-04-04T10:18:06.482Z,25.98
2023-04-04T10:19:06.525Z,26.58
2023-04-04T10:20:06.484Z,29.28
2023-04-04T10:21:15.347Z,27.13
2023-04-04T10:22:06.467Z,27.52
2023-04-04T10:23:06.457Z,28.07
2023-04-04T10:24:06.447Z,28.25
2023-04-04T10:25:05.444Z,27.75
2023-04-04T10:26:06.423Z,28.78
2023-04-04T10:27:06.448Z,29.23
2023-04-04T10:28:05.424Z,28.63
2023-04-04T10:29:05.448Z,28.08
2023-04-04T10:30:06.446Z,26.69
2023-04-04T10:31:07.230Z,29.14
2023-04-04T10:32:06.505Z,25.00
2023-04-04T10:33:05.459Z,29.67
2023-04-04T10:34:06.387Z,25.00
2023-04-04T10:35:05.379Z,27.82
2023-04-04T10:36:06.409Z,28.94
2023-04-04T10:37:06.394Z,28.48
2023-04-04T10:38:05.404Z,29.74
2023-04-04T10:39:05.448Z,28.73
2023-04-04T10:40:05.517Z,26.96
2023-04-04T10:41:05.612Z,27.77
2023-04-04T10:42:05.638Z,27.61
2023-04-04T10:43:06.705Z,28.76
2023-04-04T10:44:06.766Z,28.89
2023-04-04T10:45:19.817Z,25.75
2023-04-04T10:46:06.907Z,26.05
2023-04-04T10:47:05.810Z,27.02
2023-04-04T10:48:08.846Z,28.40
2023-04-04T10:49:06.799Z,26.08
2023-04-04T10:50:06.786Z,26.85
2023-04-04T10:51:06.794Z,27.53
2023-04-04T10:52:05.766Z,28.81
2023-04-04T10:53:06.764Z,30.43
2023-04-04T10:54:06.753Z,29.94
2023-04-04T10:55:06.753Z,29.02
2023-04-04T10:56:06.744Z,29.46
2023-04-04T10:57:06.730Z,29.38
2023-04-04T10:58:06.737Z,29.85
2023-04-04T10:59:06.768Z,28.01
2023-04-04T11:00:06.788Z,30.61
2023-04-04T11:01:06.712Z,30.93
2023-04-04T11:02:06.738Z,27.32
2023-04-04T11:03:06.752Z,29.36
2023-04-04T11:04:06.698Z,28.22
2023-04-04T11:05:05.672Z,26.77
2023-04-04T11:06:06.678Z,29.90
2023-04-04T11:07:06.728Z,32.23
2023-04-04T11:08:08.513Z,29.17
2023-04-04T11:09:05.802Z,32.10
2023-04-04T11:10:06.782Z,29.62
2023-04-04T11:11:16.062Z,27.24
2023-04-04T11:12:06.759Z,27.55
2023-04-04T11:13:12.282Z,28.74
2023-04-04T11:14:06.748Z,27.68
2023-04-04T11:15:06.754Z,28.46
2023-04-04T11:16:05.803Z,29.04
2023-04-04T11:17:06.730Z,27.40
2023-04-04T11:18:21.403Z,28.36
2023-04-04T11:19:06.707Z,27.58
2023-04-04T11:20:06.695Z,28.26
2023-04-04T11:21:06.715Z,28.28
2023-04-04T11:22:06.696Z,29.02
2023-04-04T11:23:05.687Z,23.17
2023-04-04T11:24:05.671Z,28.50
2023-04-04T11:25:06.674Z,25.00
2023-04-04T11:26:06.682Z,29.17
2023-04-04T11:27:06.649Z,29.03
2023-04-04T11:28:06.734Z,29.71
2023-04-04T11:29:06.632Z,26.94
2023-04-04T11:30:07.404Z,25.73
2023-04-04T11:31:06.633Z,25.07
2023-04-04T11:32:06.663Z,30.89
2023-04-04T11:33:08.224Z,28.42
2023-04-04T11:34:06.631Z,25.00
2023-04-04T11:35:06.597Z,31.50
2023-04-04T11:36:08.407Z,28.54
2023-04-04T11:37:06.584Z,28.68
2023-04-04T11:38:06.591Z,28.78
2023-04-04T11:39:06.567Z,29.13
2023-04-04T11:40:06.572Z,30.53
2023-04-04T11:41:06.549Z,26.40
2023-04-04T11:42:05.533Z,29.02
2023-04-04T11:43:06.526Z,30.52
2023-04-04T11:44:06.527Z,30.89
2023-04-04T11:45:06.518Z,27.65
2023-04-04T11:46:06.510Z,30.78
2023-04-04T11:47:05.494Z,28.89
2023-04-04T11:48:06.493Z,29.75
2023-04-04T11:49:06.494Z,27.69
2023-04-04T11:50:06.495Z,30.25
2023-04-04T11:51:06.468Z,30.92
2023-04-04T11:52:06.475Z,26.40
2023-04-04T11:53:06.470Z,31.39
2023-04-04T11:54:05.455Z,29.16
2023-04-04T11:55:06.436Z,29.38
2023-04-04T11:56:06.434Z,28.22
2023-04-04T11:57:06.422Z,28.59
2023-04-04T11:58:05.413Z,32.32
2023-04-04T11:59:11.462Z,26.30
2023-04-04T12:00:06.443Z,26.73
2023-04-04T12:01:06.426Z,28.01
2023-04-04T12:02:05.436Z,28.94
2023-04-04T12:03:05.531Z,29.50
2023-04-04T12:04:06.423Z,31.23
2023-04-04T12:05:06.537Z,32.49
2023-04-04T12:06:06.461Z,30.11
2023-04-04T12:07:06.391Z,29.87
2023-04-04T12:08:06.389Z,26.83
2023-04-04T12:09:05.380Z,31.00
2023-04-04T12:10:06.385Z,30.60
2023-04-04T12:11:06.364Z,28.30
2023-04-04T12:12:06.365Z,29.95
2023-04-04T12:13:06.365Z,32.90
2023-04-04T12:14:05.365Z,30.03
2023-04-04T12:15:16.537Z,31.31
2023-04-04T12:16:06.364Z,31.60
2023-04-04T12:17:06.345Z,31.44
2023-04-04T12:18:06.393Z,30.73
2023-04-04T12:19:06.319Z,30.84
2023-04-04T12:20:06.300Z,33.46
2023-04-04T12:21:06.306Z,29.43
2023-04-04T12:22:06.309Z,26.97
2023-04-04T12:23:05.277Z,26.35
2023-04-04T12:24:06.307Z,30.44
2023-04-04T12:25:06.376Z,25.26
2023-04-04T12:26:06.429Z,32.27
2023-04-04T12:27:06.499Z,32.39
2023-04-04T12:28:06.572Z,29.87
2023-04-04T12:29:06.648Z,28.92
2023-04-04T12:30:06.673Z,25.93
2023-04-04T12:31:06.799Z,27.93
2023-04-04T12:32:06.828Z,27.76
2023-04-04T12:33:06.907Z,30.04
2023-04-04T12:34:05.918Z,29.72
2023-04-04T12:35:06.959Z,29.63
2023-04-04T12:36:07.081Z,26.72
2023-04-04T12:37:06.096Z,29.73
2023-04-04T12:38:06.318Z,28.74
2023-04-04T12:39:06.208Z,31.71
2023-04-04T12:40:06.292Z,31.99
2023-04-04T12:41:07.343Z,30.38
2023-04-04T12:42:07.430Z,30.23
2023-04-04T12:43:07.516Z,27.79
2023-04-04T12:44:07.542Z,30.75
2023-04-04T12:45:07.602Z,28.90
2023-04-04T12:46:07.663Z,29.97
2023-04-04T12:47:06.826Z,26.77
2023-04-04T12:48:07.909Z,28.94
2023-04-04T12:49:07.869Z,32.23
2023-04-04T12:50:07.929Z,31.83
2023-04-04T12:51:07.993Z,26.72
2023-04-04T12:52:08.049Z,25.41
2023-04-04T12:53:23.950Z,30.97